Portada
METAR-TAF:

METAR-TAF

Aeropuertos :

Burdeos, Francia

Aeropuerto de Burdeos-Mérignac

latitud: 44-50N, longitud: 000-42W, altitud: 49 m

Observación

El informe se hizo hace 19 minutos, a las 11:00 UTC
Viento 5 kt del sur-suroeste, variando entre sur-sureste y suroeste
Temperatura 18°C
Humedad 49%
Presión 1013 hPa
Visibilidad 10 km o más
sin nubes por debajo de 1500 m y sin presencia de cumulonimbus.

METAR: LFBD 231100Z AUTO 21005KT 160V230 CAVOK 18/07 Q1013 NOSIG

Hora: 12:19 (11:19 UTC)

Pronóstico

El informe se hizo hace 6 horas y 19 minutos, a las 05:00 UTC
Pronóstico válido del 23 a las 06 UTC al 24 a las 12 UTC
Viento 10 kt del sur
Visibilidad 10 km o más
sin nubes por debajo de 1500 m y sin presencia de cumulonimbus.
Temporalmente
del 24 a las 09 UTC al 24 a las 12 UTC
Cielo nuboso a una altura de 8000 ft, Cumulus congestus.
chaparrones de lluvia

TAF: LFBD 230500Z 2306/2412 17010KT CAVOK TEMPO 2409/2412 -SHRA BKN080TCU TX20/2314Z TN09/2306Z

Observaciones y pronósticos meteorológicos de más de 4000 aeropuertos (mensajes METAR y TAF).

Los puntos amarillos y rojos representan las estaciones disponibles.

Ponga el ratón en el punto deseado para ver el nombre de la estación.

Haga clic para ver las observaciones y los pronósticos meteorológicos.

Para cambiar el mapa : haga clic en los botones verdes con una cruz de color negro para hacer un zoom, en el botón verde con un guión para alejar o en las flechas verdes para mapas adyacentes.


METAR-TAF: